Time;durP1;ratioP1;P1;durP2;ratioP2;P2;SDS_P1;SDS_P2;PMS_P1;PMS_P2;Temp;Humidity;BMP_temperature;BMP_pressure;BME280_temperature;BME280_humidity;BME280_pressure;Samples;Min_cycle;Max_cycle;Signal;HPM_P1;HPM_P2
2020/12/10 00:02:15;;;;;;;20.80;8.15;;;3.30;78.10;;;;;;4901453;29;20025;-82
2020/12/10 00:04:40;;;;;;;23.00;9.88;;;3.30;78.30;;;;;;4906458;29;20024;-79
2020/12/10 00:07:07;;;;;;;20.20;8.43;;;3.40;78.60;;;;;;4905091;29;20032;-79
2020/12/10 00:09:33;;;;;;;18.25;8.20;;;3.40;78.30;;;;;;4899729;29;20029;-80
2020/12/10 00:12:05;;;;;;;15.52;6.40;;;3.40;78.10;;;;;;4899636;29;20024;-79
2020/12/10 00:14:31;;;;;;;18.17;7.60;;;3.40;78.70;;;;;;4896506;29;20080;-80
2020/12/10 00:16:56;;;;;;;19.25;7.47;;;3.40;77.90;;;;;;4899539;29;20037;-79
2020/12/10 00:19:22;;;;;;;19.35;8.15;;;3.40;78.30;;;;;;4883643;29;20056;-80
2020/12/10 00:21:48;;;;;;;20.60;8.50;;;3.50;78.30;;;;;;4899373;29;20035;-80
2020/12/10 00:24:14;;;;;;;22.95;8.75;;;3.50;78.20;;;;;;4899800;29;20025;-80
2020/12/10 00:26:39;;;;;;;22.50;9.30;;;3.50;78.20;;;;;;4916575;29;20077;-81
2020/12/10 00:29:05;;;;;;;20.70;8.48;;;3.50;78.30;;;;;;4901721;29;20028;-81
2020/12/10 00:31:30;;;;;;;24.17;10.25;;;3.50;78.00;;;;;;4918896;29;20118;-81
2020/12/10 00:33:56;;;;;;;21.42;8.68;;;3.40;77.70;;;;;;4887877;29;20032;-81
2020/12/10 00:36:22;;;;;;;16.73;6.78;;;3.40;77.90;;;;;;4902950;29;20029;-81
2020/12/10 00:38:48;;;;;;;18.30;7.57;;;3.40;77.90;;;;;;4903357;29;20047;-80
2020/12/10 00:41:14;;;;;;;20.60;7.70;;;3.40;78.00;;;;;;4902975;29;20156;-81
2020/12/10 00:43:40;;;;;;;16.55;7.03;;;3.40;78.10;;;;;;4902713;29;20036;-81
2020/12/10 00:46:06;;;;;;;21.58;9.02;;;3.40;78.10;;;;;;4918920;29;20024;-80
2020/12/10 00:48:32;;;;;;;20.80;7.75;;;3.40;78.10;;;;;;4902866;29;20491;-80
2020/12/10 00:50:59;;;;;;;21.45;9.20;;;3.40;78.20;;;;;;4903173;29;20500;-80
2020/12/10 00:53:25;;;;;;;19.02;7.90;;;3.30;77.90;;;;;;4918785;29;20032;-80
2020/12/10 00:55:54;;;;;;;20.45;8.25;;;3.40;78.10;;;;;;4903035;29;20039;-80
2020/12/10 00:58:20;;;;;;;21.55;7.53;;;3.40;78.00;;;;;;4902771;29;20459;-81
2020/12/10 01:00:46;;;;;;;22.17;8.43;;;3.30;78.00;;;;;;4918837;29;20032;-81
2020/12/10 01:03:11;;;;;;;19.17;8.57;;;3.30;78.00;;;;;;4902696;29;20104;-81
2020/12/10 01:05:37;;;;;;;22.63;9.10;;;3.30;78.10;;;;;;4918736;29;20028;-81
2020/12/10 01:08:02;;;;;;;20.38;8.82;;;3.40;78.50;;;;;;4902799;29;20091;-81
2020/12/10 01:10:28;;;;;;;22.88;8.85;;;3.40;78.40;;;;;;4887156;29;20039;-81
2020/12/10 01:12:54;;;;;;;24.55;10.23;;;3.50;78.50;;;;;;4919597;29;20032;-81
2020/12/10 01:15:19;;;;;;;18.95;8.02;;;3.50;78.30;;;;;;4902980;29;20059;-81
2020/12/10 01:17:45;;;;;;;20.45;9.15;;;3.50;78.10;;;;;;4902314;29;20472;-81
2020/12/10 01:20:10;;;;;;;23.40;9.02;;;3.50;78.30;;;;;;4902416;29;20060;-81
2020/12/10 01:22:37;;;;;;;24.80;10.73;;;3.50;78.30;;;;;;4902291;29;20833;-81
2020/12/10 01:25:04;;;;;;;25.05;9.95;;;3.50;78.50;;;;;;4919490;29;20106;-81
2020/12/10 01:27:30;;;;;;;23.27;9.40;;;3.60;78.60;;;;;;4902350;29;20477;-80
2020/12/10 01:29:55;;;;;;;21.00;9.10;;;3.60;78.50;;;;;;4902182;29;20123;-80
2020/12/10 01:32:23;;;;;;;23.00;8.88;;;3.60;78.50;;;;;;4902155;29;20032;-79
2020/12/10 01:34:48;;;;;;;23.45;8.95;;;3.60;78.10;;;;;;4917644;29;20020;-80
2020/12/10 01:37:14;;;;;;;21.58;9.85;;;3.60;77.80;;;;;;4902177;29;20040;-80
2020/12/10 01:39:39;;;;;;;24.83;9.20;;;3.60;78.10;;;;;;4885945;29;20119;-80
2020/12/10 01:42:05;;;;;;;20.42;8.98;;;3.60;78.20;;;;;;4901947;29;20032;-80
2020/12/10 01:44:31;;;;;;;20.67;9.02;;;3.60;78.30;;;;;;4902350;29;20028;-80
2020/12/10 01:46:57;;;;;;;21.38;8.65;;;3.60;78.30;;;;;;4917780;29;20401;-80
2020/12/10 01:49:22;;;;;;;20.40;9.10;;;3.60;78.00;;;;;;4886088;29;20028;-80
2020/12/10 01:51:48;;;;;;;18.33;8.15;;;3.60;78.00;;;;;;4886345;29;20055;-81
2020/12/10 01:54:13;;;;;;;21.10;8.70;;;3.60;78.30;;;;;;4886286;29;20163;-81
2020/12/10 01:56:39;;;;;;;22.83;9.88;;;3.60;78.30;;;;;;4902052;29;20039;-82
2020/12/10 01:59:05;;;;;;;19.98;8.32;;;3.60;78.30;;;;;;4901877;29;20032;-81
2020/12/10 02:01:32;;;;;;;24.73;9.32;;;3.60;78.40;;;;;;4901629;29;20028;-82
2020/12/10 02:03:58;;;;;;;22.67;9.23;;;3.60;78.20;;;;;;4901708;29;20051;-81
2020/12/10 02:06:23;;;;;;;19.48;8.52;;;3.60;78.30;;;;;;4901670;29;20036;-81
2020/12/10 02:08:49;;;;;;;24.85;9.48;;;3.60;78.40;;;;;;4886123;29;20047;-80
2020/12/10 02:11:15;;;;;;;23.45;10.02;;;3.70;78.30;;;;;;4901735;29;20477;-80
2020/12/10 02:13:40;;;;;;;25.25;10.38;;;3.70;78.30;;;;;;4901732;29;20039;-82
2020/12/10 02:16:07;;;;;;;22.77;9.05;;;3.60;78.10;;;;;;4885912;29;20042;-81
2020/12/10 02:18:33;;;;;;;24.13;9.60;;;3.60;78.20;;;;;;4885970;29;20052;-81
2020/12/10 02:21:00;;;;;;;23.35;8.75;;;3.60;78.10;;;;;;4918439;29;20451;-81
2020/12/10 02:23:25;;;;;;;23.05;8.75;;;3.60;78.10;;;;;;4901445;29;20469;-80
2020/12/10 02:25:51;;;;;;;22.08;8.73;;;3.60;78.20;;;;;;4901252;29;20028;-80
2020/12/10 02:28:17;;;;;;;20.40;8.27;;;3.60;78.30;;;;;;4916932;29;20032;-81
2020/12/10 02:30:45;;;;;;;27.08;9.77;;;3.60;78.30;;;;;;4901197;29;20031;-81
2020/12/10 02:33:12;;;;;;;22.27;9.00;;;3.60;78.30;;;;;;4917097;29;20106;-82
2020/12/10 02:35:39;;;;;;;22.48;9.35;;;3.60;78.20;;;;;;4916745;29;20500;-83
2020/12/10 02:38:07;;;;;;;21.40;9.38;;;3.60;78.70;;;;;;4916780;29;20468;-83
2020/12/10 02:40:37;;;;;;;24.70;10.45;;;3.60;78.20;;;;;;4901177;29;20047;-82
2020/12/10 02:43:02;;;;;;;19.02;8.40;;;3.60;78.10;;;;;;4902555;29;20111;-81
2020/12/10 02:45:28;;;;;;;24.98;9.73;;;3.60;78.30;;;;;;4909971;29;20048;-82
2020/12/10 02:47:55;;;;;;;21.90;8.85;;;3.70;78.40;;;;;;4907916;29;20133;-82
2020/12/10 02:50:21;;;;;;;23.00;8.95;;;3.60;78.20;;;;;;4920575;29;20389;-81
2020/12/10 02:52:47;;;;;;;21.85;8.85;;;3.60;78.20;;;;;;4916081;29;20121;-82
2020/12/10 02:55:13;;;;;;;23.27;9.45;;;3.60;78.10;;;;;;4916757;29;20105;-81
2020/12/10 02:57:38;;;;;;;23.50;9.05;;;3.60;78.30;;;;;;4885135;29;20092;-82
2020/12/10 03:00:06;;;;;;;21.98;8.73;;;3.60;78.30;;;;;;4900810;29;20028;-82
2020/12/10 03:02:32;;;;;;;21.35;8.23;;;3.70;79.00;;;;;;4916267;29;20111;-81
2020/12/10 03:04:58;;;;;;;23.17;9.10;;;3.60;78.30;;;;;;4900705;29;20114;-81
2020/12/10 03:07:24;;;;;;;24.55;9.57;;;3.70;78.30;;;;;;4900694;29;20032;-82
2020/12/10 03:09:49;;;;;;;21.70;8.82;;;3.70;78.30;;;;;;4900817;29;20036;-82
2020/12/10 03:12:15;;;;;;;22.10;9.23;;;3.70;78.20;;;;;;4900708;29;20381;-82
2020/12/10 03:14:41;;;;;;;19.20;8.02;;;3.70;78.40;;;;;;4884993;29;20436;-82
2020/12/10 03:17:06;;;;;;;20.13;8.13;;;3.70;78.40;;;;;;4917171;29;20036;-82
2020/12/10 03:19:32;;;;;;;23.45;9.98;;;3.70;78.30;;;;;;4917261;29;20079;-82
2020/12/10 03:21:58;;;;;;;22.50;9.35;;;3.70;78.10;;;;;;4900230;29;20036;-82
2020/12/10 03:24:24;;;;;;;22.35;9.85;;;3.70;78.20;;;;;;4900559;29;20039;-82
2020/12/10 03:26:49;;;;;;;24.58;9.82;;;3.70;78.30;;;;;;4915853;29;20034;-82
2020/12/10 03:29:15;;;;;;;18.90;8.07;;;3.70;78.20;;;;;;4915813;29;20044;-82
2020/12/10 03:31:41;;;;;;;22.05;8.90;;;3.70;78.50;;;;;;4900343;29;20024;-82
2020/12/10 03:34:07;;;;;;;19.92;8.02;;;3.70;78.40;;;;;;4900023;29;20035;-82
2020/12/10 03:36:48;;;;;;;24.48;8.93;;;3.70;78.30;;;;;;4900148;29;20036;-82
2020/12/10 03:39:13;;;;;;;21.85;8.50;;;3.70;78.40;;;;;;4917099;29;20028;-82
2020/12/10 03:41:39;;;;;;;25.83;9.40;;;3.70;78.30;;;;;;4899974;29;20524;-81
2020/12/10 03:44:04;;;;;;;22.38;9.60;;;3.70;78.90;;;;;;4917028;29;20032;-81
2020/12/10 03:46:30;;;;;;;23.10;8.95;;;3.70;78.30;;;;;;4899790;29;20028;-82
2020/12/10 03:48:56;;;;;;;25.83;9.35;;;3.70;78.30;;;;;;4899960;29;20107;-81
2020/12/10 03:51:21;;;;;;;22.75;10.07;;;3.70;78.40;;;;;;4899979;29;20028;-83
2020/12/10 03:53:47;;;;;;;21.13;9.10;;;3.70;78.30;;;;;;4903257;29;20115;-83
2020/12/10 03:56:12;;;;;;;22.80;8.43;;;3.70;78.20;;;;;;4884370;29;20024;-81
2020/12/10 03:58:38;;;;;;;21.88;9.30;;;3.70;78.00;;;;;;4899273;29;20519;-81
2020/12/10 04:01:04;;;;;;;21.83;9.35;;;3.70;78.20;;;;;;4899854;29;20025;-81
2020/12/10 04:03:29;;;;;;;21.25;8.93;;;3.70;78.30;;;;;;4883992;29;20396;-81
2020/12/10 04:05:55;;;;;;;26.65;10.73;;;3.70;78.30;;;;;;4916483;29;20024;-81
2020/12/10 04:08:20;;;;;;;21.85;8.68;;;3.70;78.40;;;;;;4899770;29;20028;-81
2020/12/10 04:10:46;;;;;;;22.70;9.02;;;3.70;78.30;;;;;;4899593;29;20396;-80
2020/12/10 04:13:11;;;;;;;24.52;9.57;;;3.70;78.20;;;;;;4884213;29;20032;-82
2020/12/10 04:15:37;;;;;;;22.98;9.23;;;3.70;78.20;;;;;;4899372;29;20031;-82
2020/12/10 04:18:02;;;;;;;24.48;9.45;;;3.60;78.10;;;;;;4899099;29;20043;-82
2020/12/10 04:20:28;;;;;;;19.50;8.27;;;3.60;78.10;;;;;;4899725;29;20042;-82
2020/12/10 04:22:53;;;;;;;25.45;9.07;;;3.60;78.30;;;;;;4899488;29;20439;-82
2020/12/10 04:25:20;;;;;;;21.17;8.07;;;3.70;78.40;;;;;;4899308;29;20024;-82
2020/12/10 04:27:45;;;;;;;26.10;9.40;;;3.70;78.30;;;;;;4899427;29;20028;-82
2020/12/10 04:30:11;;;;;;;26.23;10.23;;;3.60;77.80;;;;;;4899417;29;20429;-82
2020/12/10 04:32:36;;;;;;;27.70;10.38;;;3.60;78.20;;;;;;4868688;29;20040;-82
2020/12/10 04:35:03;;;;;;;34.15;11.70;;;3.60;78.30;;;;;;4916207;29;20115;-82
2020/12/10 04:37:28;;;;;;;33.63;11.82;;;3.60;78.30;;;;;;4899261;29;20056;-82
2020/12/10 04:39:54;;;;;;;28.23;10.35;;;3.60;78.20;;;;;;4899508;29;20417;-82
2020/12/10 04:42:19;;;;;;;34.72;10.80;;;3.60;78.30;;;;;;4899302;29;20032;-82
2020/12/10 04:44:46;;;;;;;33.80;8.43;;;3.60;78.50;;;;;;4899174;29;20028;-82
2020/12/10 04:47:12;;;;;;;39.75;12.75;;;3.70;78.40;;;;;;4916047;29;20025;-82
2020/12/10 04:49:39;;;;;;;40.33;11.73;;;3.60;77.90;;;;;;4899483;29;20036;-82
2020/12/10 04:52:07;;;;;;;32.90;11.07;;;3.60;78.20;;;;;;4915114;29;20389;-82
2020/12/10 04:54:34;;;;;;;31.65;10.43;;;3.50;77.90;;;;;;4914987;29;20039;-81
2020/12/10 04:57:02;;;;;;;36.65;11.23;;;3.60;78.40;;;;;;4914739;29;20028;-81
2020/12/10 04:59:27;;;;;;;30.30;10.07;;;3.60;78.50;;;;;;4899127;29;20040;-81
2020/12/10 05:01:55;;;;;;;22.83;7.68;;;3.50;78.10;;;;;;4899053;29;20040;-81
2020/12/10 05:04:23;;;;;;;32.70;9.77;;;3.50;78.30;;;;;;4899296;29;20099;-81
2020/12/10 05:06:50;;;;;;;36.28;10.75;;;3.50;78.30;;;;;;4914851;29;20031;-81
2020/12/10 05:09:15;;;;;;;35.08;9.35;;;3.50;78.00;;;;;;4899239;29;20028;-80
2020/12/10 05:11:41;;;;;;;43.17;11.65;;;3.50;78.00;;;;;;4914580;29;20038;-80
2020/12/10 05:14:07;;;;;;;41.83;11.95;;;3.50;78.30;;;;;;4899210;29;20035;-80
2020/12/10 05:16:32;;;;;;;38.90;12.55;;;3.50;78.60;;;;;;4902662;29;20481;-80
2020/12/10 05:19:16;;;;;;;39.55;11.10;;;3.50;78.50;;;;;;4918252;29;20064;-80
2020/12/10 05:21:42;;;;;;;39.78;11.07;;;3.50;78.30;;;;;;4902682;29;20020;-80
2020/12/10 05:24:20;;;;;;;42.47;11.60;;;3.50;78.10;;;;;;4902654;29;20043;-81
2020/12/10 05:26:46;;;;;;;40.10;12.73;;;3.50;78.40;;;;;;4904678;29;20086;-81
2020/12/10 05:29:11;;;;;;;45.30;15.95;;;3.50;78.50;;;;;;4908025;29;20028;-81
2020/12/10 05:31:37;;;;;;;36.72;11.80;;;3.60;78.80;;;;;;4909079;29;20036;-82
2020/12/10 05:34:03;;;;;;;42.45;13.32;;;3.60;78.70;;;;;;4901888;29;20057;-82
2020/12/10 05:36:32;;;;;;;39.22;12.00;;;3.60;78.60;;;;;;4902290;29;20025;-82
2020/12/10 05:39:11;;;;;;;35.25;10.82;;;3.60;78.40;;;;;;4886211;29;20039;-82
2020/12/10 05:41:45;;;;;;;42.42;14.23;;;3.60;78.40;;;;;;4902177;29;20545;-83
2020/12/10 05:44:18;;;;;;;37.50;11.10;;;3.60;78.40;;;;;;4902890;29;20032;-82
2020/12/10 05:46:44;;;;;;;35.65;10.88;;;3.60;78.60;;;;;;4900059;29;20268;-82
2020/12/10 05:49:13;;;;;;;40.63;12.70;;;3.70;78.70;;;;;;4901465;29;20040;-80
2020/12/10 05:51:44;;;;;;;35.88;11.02;;;3.70;78.30;;;;;;4898869;29;20032;-80
2020/12/10 05:54:11;;;;;;;44.80;12.55;;;3.60;78.40;;;;;;4899552;29;20059;-80
2020/12/10 05:56:57;;;;;;;36.22;10.65;;;3.60;78.20;;;;;;4871051;29;20056;-80
2020/12/10 05:59:30;;;;;;;30.77;10.95;;;3.70;78.50;;;;;;4898392;29;20031;-81
2020/12/10 06:02:07;;;;;;;32.33;11.57;;;3.60;78.50;;;;;;4917530;29;20063;-81
2020/12/10 06:04:33;;;;;;;37.88;12.43;;;3.70;78.70;;;;;;4899710;29;20076;-82
2020/12/10 06:07:00;;;;;;;41.05;13.02;;;3.60;78.30;;;;;;4918001;29;20079;-82
2020/12/10 06:09:26;;;;;;;41.65;12.32;;;3.60;78.40;;;;;;4917676;29;20127;-82
2020/12/10 06:12:02;;;;;;;41.78;12.30;;;3.60;78.40;;;;;;4902041;29;20536;-82
2020/12/10 06:14:28;;;;;;;33.20;11.13;;;3.60;78.40;;;;;;4897701;29;20042;-88
2020/12/10 06:17:10;;;;;;;31.77;10.88;;;3.60;78.50;;;;;;4901603;29;20040;-83
2020/12/10 06:19:37;;;;;;;47.38;12.98;;;3.70;78.90;;;;;;4918143;29;20055;-83
2020/12/10 06:22:38;;;;;;;34.20;13.48;;;3.80;78.90;;;;;;4913765;29;20043;-81
2020/12/10 06:25:24;;;;;;;41.25;11.32;;;3.70;78.40;;;;;;4858771;29;20044;-80
2020/12/10 06:27:50;;;;;;;41.58;11.70;;;3.70;78.40;;;;;;4899534;29;20040;-81
2020/12/10 06:30:20;;;;;;;36.50;11.35;;;3.90;78.80;;;;;;4886282;29;20032;-79
2020/12/10 06:32:55;;;;;;;40.30;11.75;;;3.80;78.70;;;;;;4901199;29;20036;-85
2020/12/10 06:35:50;;;;;;;41.55;12.85;;;3.70;78.50;;;;;;4885771;29;20385;-84
2020/12/10 06:38:51;;;;;;;40.30;12.85;;;3.80;78.80;;;;;;4901384;29;20088;-84
2020/12/10 06:41:37;;;;;;;49.33;15.40;;;3.80;78.80;;;;;;4898463;29;20040;-85
2020/12/10 06:44:03;;;;;;;38.05;11.25;;;3.80;78.70;;;;;;4885744;29;20058;-85
2020/12/10 06:46:29;;;;;;;54.10;14.32;;;3.80;78.40;;;;;;4916689;29;20448;-84
2020/12/10 06:48:56;;;;;;;44.67;12.80;;;3.90;78.50;;;;;;4906057;29;20032;-84
2020/12/10 06:51:22;;;;;;;53.13;13.07;;;3.90;78.90;;;;;;4918256;29;20067;-83
2020/12/10 06:54:00;;;;;;;48.20;12.65;;;3.80;78.80;;;;;;4918048;29;20044;-83
2020/12/10 06:56:30;;;;;;;38.75;11.80;;;4.00;78.90;;;;;;4917868;29;20540;-83
2020/12/10 06:58:59;;;;;;;40.75;12.60;;;3.90;78.70;;;;;;4901641;29;20032;-82
2020/12/10 07:01:32;;;;;;;47.55;13.40;;;3.80;78.20;;;;;;4918915;29;20024;-84
2020/12/10 07:04:30;;;;;;;51.95;12.65;;;3.80;78.30;;;;;;4900639;29;20030;-84
2020/12/10 07:07:35;;;;;;;45.13;13.32;;;3.70;78.50;;;;;;4917014;29;20183;-83
2020/12/10 07:10:02;;;;;;;41.78;13.30;;;3.90;78.70;;;;;;4843479;29;20474;-83
2020/12/10 07:12:27;;;;;;;55.45;14.40;;;3.60;78.00;;;;;;4832082;29;20048;-82
2020/12/10 07:15:16;;;;;;;47.13;12.45;;;3.70;78.40;;;;;;4877452;29;20040;-84
2020/12/10 07:17:49;;;;;;;33.28;9.05;;;3.70;78.50;;;;;;4897187;29;20036;-84
2020/12/10 07:20:16;;;;;;;34.47;9.43;;;3.60;78.00;;;;;;4914003;29;20052;-82
2020/12/10 07:22:41;;;;;;;29.98;7.28;;;3.60;78.30;;;;;;4916079;29;20024;-85
2020/12/10 07:25:07;;;;;;;47.85;12.45;;;3.60;78.20;;;;;;4884567;29;20102;-84
2020/12/10 07:27:33;;;;;;;50.83;13.48;;;3.50;78.20;;;;;;4917020;29;20028;-83
2020/12/10 07:29:59;;;;;;;42.45;13.75;;;3.50;78.50;;;;;;4899878;29;20536;-84
2020/12/10 07:32:24;;;;;;;47.47;12.23;;;3.50;78.60;;;;;;4900522;29;20032;-88
2020/12/10 07:34:50;;;;;;;50.15;13.80;;;3.60;78.90;;;;;;4885250;29;20039;-88
2020/12/10 07:37:17;;;;;;;41.33;12.15;;;3.60;78.70;;;;;;4889665;29;20028;-88
2020/12/10 07:39:43;;;;;;;42.20;12.25;;;3.60;78.70;;;;;;4902254;29;20032;-86
2020/12/10 07:42:08;;;;;;;46.97;12.60;;;3.70;78.70;;;;;;4916155;29;20099;-87
2020/12/10 07:44:35;;;;;;;56.95;12.95;;;3.70;78.80;;;;;;4900340;29;20028;-87
2020/12/10 07:47:10;;;;;;;61.22;13.52;;;3.70;78.70;;;;;;4901386;29;20021;-87
2020/12/10 07:49:36;;;;;;;36.13;11.52;;;3.70;78.80;;;;;;4914781;29;20396;-86
2020/12/10 07:52:12;;;;;;;51.10;12.82;;;3.80;78.70;;;;;;4884999;29;20028;-86
2020/12/10 07:54:52;;;;;;;44.53;12.63;;;3.80;78.70;;;;;;4881255;29;20034;-82
2020/12/10 07:57:36;;;;;;;54.35;12.30;;;3.80;79.00;;;;;;4903809;29;20485;-88
2020/12/10 08:00:05;;;;;;;47.70;13.40;;;3.90;79.00;;;;;;4900106;29;20032;-85
2020/12/10 08:03:03;;;;;;;42.40;12.73;;;3.80;78.80;;;;;;4915740;29;20473;-86
2020/12/10 08:05:29;;;;;;;39.00;11.90;;;3.90;79.10;;;;;;4899806;29;20372;-86
2020/12/10 08:07:56;;;;;;;42.78;11.85;;;4.00;79.10;;;;;;4900863;29;20123;-86
2020/12/10 08:10:26;;;;;;;41.67;12.35;;;4.00;79.00;;;;;;4918919;29;20060;-85
2020/12/10 08:13:16;;;;;;;46.30;13.25;;;4.10;78.90;;;;;;4921640;29;21162;-87
2020/12/10 08:15:44;;;;;;;38.97;10.70;;;4.10;78.80;;;;;;4901223;29;20052;-86
2020/12/10 08:18:13;;;;;;;42.13;12.68;;;4.00;78.50;;;;;;4915231;29;20496;-84
2020/12/10 08:20:50;;;;;;;42.80;11.68;;;4.00;78.70;;;;;;4899792;29;20028;-87
2020/12/10 08:23:17;;;;;;;36.58;11.68;;;4.00;78.70;;;;;;4915623;29;20029;-87
2020/12/10 08:25:44;;;;;;;37.38;11.30;;;4.10;78.90;;;;;;4915510;29;20024;-89
2020/12/10 08:28:11;;;;;;;39.70;10.90;;;4.10;78.90;;;;;;4915661;29;20031;-89
2020/12/10 08:30:50;;;;;;;38.80;12.80;;;4.10;78.90;;;;;;4915755;29;20029;-88
2020/12/10 08:33:15;;;;;;;39.88;11.07;;;4.10;79.00;;;;;;4915222;29;20016;-87
2020/12/10 08:35:43;;;;;;;48.30;11.82;;;4.20;79.00;;;;;;4915352;29;20024;-86
2020/12/10 08:38:09;;;;;;;50.17;11.63;;;4.30;78.80;;;;;;4883643;29;20067;-84
2020/12/10 08:40:35;;;;;;;44.80;12.57;;;4.20;79.00;;;;;;4899384;29;20028;-86
2020/12/10 08:43:13;;;;;;;42.53;11.40;;;4.30;79.20;;;;;;4899219;29;20437;-85
2020/12/10 08:45:47;;;;;;;34.40;10.35;;;4.30;79.00;;;;;;4914323;29;20063;-86
2020/12/10 08:48:17;;;;;;;39.58;13.00;;;4.40;79.00;;;;;;4917050;29;20036;-86
2020/12/10 08:50:54;;;;;;;42.55;11.20;;;4.30;78.70;;;;;;4903772;29;20089;-84
2020/12/10 08:53:20;;;;;;;35.30;11.82;;;4.20;78.80;;;;;;4916329;29;20020;-84
2020/12/10 08:55:53;;;;;;;37.95;12.25;;;4.30;78.60;;;;;;4887696;29;20091;-84
2020/12/10 08:58:18;;;;;;;40.22;11.98;;;4.20;78.60;;;;;;4918621;29;20095;-87
2020/12/10 09:00:44;;;;;;;47.15;13.43;;;4.20;78.70;;;;;;4918812;29;20020;-85
2020/12/10 09:03:10;;;;;;;35.90;10.82;;;4.40;78.90;;;;;;4918741;29;20028;-85
2020/12/10 09:05:36;;;;;;;36.95;10.98;;;4.10;78.70;;;;;;4918627;29;20137;-86
2020/12/10 09:08:02;;;;;;;37.88;11.57;;;4.10;78.80;;;;;;4918602;29;20024;-85
2020/12/10 09:10:29;;;;;;;33.92;11.20;;;4.20;78.80;;;;;;4887395;29;20520;-86
2020/12/10 09:12:56;;;;;;;37.30;12.30;;;4.30;78.70;;;;;;4918311;29;20024;-86
2020/12/10 09:15:22;;;;;;;34.35;11.60;;;4.00;78.50;;;;;;4918478;29;20025;-87
2020/12/10 09:17:48;;;;;;;36.28;11.27;;;4.30;78.90;;;;;;4918518;29;20036;-86
2020/12/10 09:20:14;;;;;;;35.53;10.82;;;4.30;79.10;;;;;;4886924;29;20536;-84
2020/12/10 09:22:42;;;;;;;37.97;10.57;;;4.40;79.10;;;;;;4902521;29;20028;-84
2020/12/10 09:25:07;;;;;;;39.65;11.57;;;4.40;79.00;;;;;;4902401;29;20079;-82
2020/12/10 09:27:33;;;;;;;35.13;12.05;;;4.40;78.80;;;;;;4918043;29;20452;-84
2020/12/10 09:29:59;;;;;;;35.30;11.00;;;4.40;78.80;;;;;;4918060;29;20025;-83
2020/12/10 09:32:25;;;;;;;35.97;11.50;;;4.30;78.70;;;;;;4917719;29;20031;-83
2020/12/10 09:34:52;;;;;;;36.60;11.70;;;4.40;78.80;;;;;;4918022;29;20028;-83
2020/12/10 09:37:18;;;;;;;27.35;10.20;;;4.30;79.00;;;;;;4887105;29;20044;-85
2020/12/10 09:40:16;;;;;;;29.15;10.45;;;4.40;79.10;;;;;;4917561;29;20473;-83
2020/12/10 09:42:47;;;;;;;33.83;11.50;;;4.40;79.20;;;;;;4906862;29;20385;-86
2020/12/10 09:45:14;;;;;;;38.45;11.95;;;4.50;78.90;;;;;;4901920;29;20083;-84
2020/12/10 09:47:46;;;;;;;32.03;11.43;;;4.50;78.80;;;;;;4917786;29;20059;-86
2020/12/10 09:50:30;;;;;;;32.45;11.93;;;4.40;78.70;;;;;;4918027;29;20028;-84
2020/12/10 09:53:41;;;;;;;37.65;11.85;;;4.40;78.90;;;;;;4914224;29;20031;-86
2020/12/10 09:58:19;;;;;;;43.03;12.20;;;4.40;78.30;;;;;;4917504;29;20523;-85
2020/12/10 10:00:49;;;;;;;36.70;11.23;;;4.40;78.60;;;;;;4917286;29;20032;-84
2020/12/10 10:03:19;;;;;;;34.90;11.07;;;4.40;79.00;;;;;;4917417;29;20032;-84
2020/12/10 10:05:45;;;;;;;38.90;12.93;;;4.40;78.90;;;;;;4920553;29;20611;-83
2020/12/10 10:08:11;;;;;;;40.13;12.88;;;4.50;78.50;;;;;;4900456;29;20024;-80
2020/12/10 10:10:37;;;;;;;30.17;10.05;;;4.30;78.20;;;;;;4903853;29;20070;-80
2020/12/10 10:13:03;;;;;;;40.03;12.07;;;4.40;78.30;;;;;;4918472;29;20028;-80
2020/12/10 10:15:29;;;;;;;32.97;12.10;;;4.20;78.20;;;;;;4917177;29;20031;-80
2020/12/10 10:17:55;;;;;;;35.17;11.40;;;4.30;78.50;;;;;;4900775;29;20036;-80
2020/12/10 10:20:21;;;;;;;41.55;13.10;;;4.30;78.50;;;;;;4919415;29;20043;-81
2020/12/10 10:22:46;;;;;;;74.15;22.05;;;4.30;79.00;;;;;;4900924;29;20028;-81
2020/12/10 10:25:12;;;;;;;72.22;21.23;;;4.40;79.10;;;;;;4905571;29;20025;-80
2020/12/10 10:27:38;;;;;;;64.32;19.13;;;4.40;79.00;;;;;;4890972;29;20111;-81
2020/12/10 10:30:05;;;;;;;52.65;17.35;;;4.40;78.90;;;;;;4903342;29;20028;-81
2020/12/10 10:32:31;;;;;;;42.80;13.35;;;4.40;79.40;;;;;;4887077;29;20055;-80
2020/12/10 10:35:08;;;;;;;43.63;12.10;;;4.40;79.00;;;;;;4900863;29;20485;-82
2020/12/10 10:37:33;;;;;;;43.80;11.98;;;4.40;78.90;;;;;;4901090;29;20046;-82
2020/12/10 10:39:59;;;;;;;37.63;11.88;;;4.60;79.50;;;;;;4917200;29;20020;-80
2020/12/10 10:42:25;;;;;;;40.85;13.43;;;4.70;79.60;;;;;;4888572;29;20059;-80
2020/12/10 10:44:54;;;;;;;51.85;14.75;;;4.80;79.40;;;;;;4902737;29;20047;-82
2020/12/10 10:47:20;;;;;;;47.30;12.32;;;4.70;79.40;;;;;;4903796;29;20035;-81
2020/12/10 10:49:46;;;;;;;49.58;14.65;;;4.80;79.40;;;;;;4916328;29;20478;-82
2020/12/10 10:52:12;;;;;;;44.92;13.57;;;4.80;79.30;;;;;;4917713;29;20024;-82
2020/12/10 10:54:37;;;;;;;48.30;13.27;;;4.90;79.10;;;;;;4925028;29;20473;-86
2020/12/10 10:57:03;;;;;;;45.58;13.25;;;4.90;79.00;;;;;;4905108;29;20040;-86
2020/12/10 10:59:29;;;;;;;45.50;12.68;;;5.00;79.00;;;;;;4902452;29;21147;-83
2020/12/10 11:01:54;;;;;;;46.45;13.90;;;4.90;79.00;;;;;;4900852;29;20032;-81
2020/12/10 11:04:20;;;;;;;48.20;13.90;;;4.90;78.90;;;;;;4885222;29;20036;-82
2020/12/10 11:06:52;;;;;;;41.45;12.57;;;4.90;78.50;;;;;;4921353;29;20029;-83
2020/12/10 11:09:18;;;;;;;47.97;13.27;;;4.80;78.90;;;;;;4901004;29;20043;-85
2020/12/10 11:11:44;;;;;;;36.53;11.13;;;4.70;78.90;;;;;;4916066;29;20028;-85
2020/12/10 11:14:09;;;;;;;42.88;13.73;;;4.80;79.10;;;;;;4916482;29;20032;-85
2020/12/10 11:16:35;;;;;;;47.40;14.05;;;4.90;79.00;;;;;;4900570;29;20385;-85
2020/12/10 11:19:01;;;;;;;34.88;12.55;;;4.90;78.90;;;;;;4884432;29;20056;-86
2020/12/10 11:21:27;;;;;;;33.83;11.60;;;4.80;79.10;;;;;;4916351;29;20024;-85
2020/12/10 11:23:53;;;;;;;43.45;13.50;;;4.80;78.70;;;;;;4916132;29;20020;-85
2020/12/10 11:26:19;;;;;;;41.50;10.45;;;4.80;78.80;;;;;;4916124;29;20107;-84
2020/12/10 11:28:44;;;;;;;42.13;11.02;;;4.90;79.20;;;;;;4900252;29;20035;-85
2020/12/10 11:31:10;;;;;;;42.10;12.60;;;4.90;79.00;;;;;;4915889;29;20042;-84
2020/12/10 11:33:36;;;;;;;48.13;12.77;;;4.90;78.70;;;;;;4915968;29;20499;-85
2020/12/10 11:36:04;;;;;;;39.65;11.95;;;4.90;79.60;;;;;;4884818;29;20040;-86
2020/12/10 11:38:30;;;;;;;61.92;16.35;;;5.00;79.20;;;;;;4884664;29;20135;-84
2020/12/10 11:40:56;;;;;;;44.22;12.80;;;4.90;79.60;;;;;;4915389;29;20111;-83
2020/12/10 11:43:22;;;;;;;52.20;14.82;;;4.70;78.60;;;;;;4902593;29;20059;-82
2020/12/10 11:45:47;;;;;;;61.53;15.65;;;4.90;78.80;;;;;;4888654;29;20055;-83
2020/12/10 11:48:13;;;;;;;48.10;13.05;;;4.90;78.90;;;;;;4900844;29;20466;-82
2020/12/10 11:50:38;;;;;;;46.55;12.52;;;4.90;79.00;;;;;;4900096;29;20386;-82
2020/12/10 11:53:05;;;;;;;49.85;12.98;;;4.90;78.90;;;;;;4899610;29;20366;-82
2020/12/10 11:55:31;;;;;;;73.78;19.13;;;5.00;78.90;;;;;;4897803;29;20033;-81
2020/12/10 11:57:56;;;;;;;61.47;16.00;;;4.90;78.80;;;;;;4917782;29;20032;-81
2020/12/10 12:00:22;;;;;;;41.95;11.05;;;5.00;79.10;;;;;;4915147;29;20079;-81
2020/12/10 12:02:51;;;;;;;38.55;11.30;;;4.90;79.00;;;;;;4901149;29;20035;-84
2020/12/10 12:05:17;;;;;;;53.85;13.80;;;5.10;79.00;;;;;;4920224;29;20024;-84
2020/12/10 12:07:44;;;;;;;42.53;12.38;;;4.90;78.50;;;;;;4899377;29;20033;-84
2020/12/10 12:10:10;;;;;;;39.78;12.50;;;4.90;78.70;;;;;;4902742;29;20477;-84
2020/12/10 12:12:36;;;;;;;41.47;10.85;;;4.90;79.10;;;;;;4915197;29;20028;-87
2020/12/10 12:15:07;;;;;;;43.47;12.63;;;5.10;79.10;;;;;;4885248;29;20020;-84
2020/12/10 12:17:35;;;;;;;51.13;13.60;;;4.90;78.80;;;;;;4917226;29;20031;-83
2020/12/10 12:20:05;;;;;;;43.25;13.77;;;5.20;79.00;;;;;;4916249;29;20051;-86
2020/12/10 12:22:33;;;;;;;42.08;11.85;;;4.90;78.70;;;;;;4915690;29;20031;-84
2020/12/10 12:24:59;;;;;;;48.03;14.52;;;4.90;78.40;;;;;;4915654;29;20024;-84
2020/12/10 12:27:24;;;;;;;44.78;11.80;;;4.90;78.90;;;;;;4884168;29;20028;-84
2020/12/10 12:29:50;;;;;;;42.85;10.98;;;4.80;78.80;;;;;;4899261;29;20039;-83
2020/12/10 12:32:16;;;;;;;39.53;13.07;;;4.90;78.80;;;;;;4884599;29;20032;-84
2020/12/10 12:34:41;;;;;;;40.47;11.32;;;4.90;79.00;;;;;;4900030;29;20029;-82
2020/12/10 12:37:07;;;;;;;42.20;13.05;;;4.90;79.00;;;;;;4899234;29;20540;-84
2020/12/10 12:39:33;;;;;;;46.72;12.73;;;5.00;78.90;;;;;;4899227;29;20035;-85
2020/12/10 12:42:02;;;;;;;40.70;12.57;;;4.90;78.80;;;;;;4883834;29;20024;-86
2020/12/10 12:44:28;;;;;;;36.13;10.93;;;4.90;79.00;;;;;;4885397;29;20119;-86
2020/12/10 12:46:53;;;;;;;36.95;10.95;;;4.90;78.50;;;;;;4884463;29;20414;-88
2020/12/10 12:49:19;;;;;;;37.83;11.77;;;4.70;78.00;;;;;;4914522;29;20036;-84